Terminal Aerodrome Forecast
Issued by NWS

Home | Current Version | Previous Version | Text Only | Print | Product List | Glossary On
Versions: 1 2 3 4 5 6 7 8 9 10 11 12
900
FTUS45 KABQ 271120
TAFFMN
TAF
KFMN 271120Z 2712/2812 26007KT P6SM FEW110
     FM271600 29012KT P6SM FEW060
     FM272000 29012G20KT P6SM FEW080
     FM280100 31007KT P6SM SKC=

USA.gov is the U.S. government's official web portal to all federal, state and local government web resources and services.